Vb Bretagne — FMHX — position and weather

sailwx.info

Track history (hours):
 
Tides and Currents Weather Stations Pressure Air Temp Water Temp Dewpoint Dewpoint Depression Visibility Wind Speed Wind Dir Waves Ship Positions

Vb Bretagne

Last reported at 2015-May-24 06:33 UTC. Time now 2015-May-24 19:20 UTC.
Position N 47°18' W 002°07'.

Length 32 m; draft 4.1 m.

Type: Tug. MMSI: 228234700.

Date/timePositionNaut miles runAvg speedWind from/ knotsBaromVisibWave heightAir tempDewpointWater temp
2015-May-24 06:33N 47°18' W 002°07'1 1.4
2015-May-24 05:33N 47°18' W 002°05'0 0.0
2015-May-24 04:17N 47°18' W 002°05'0 0.0
2015-May-24 02:33N 47°18' W 002°05'0 0.0
2015-May-24 01:32N 47°18' W 002°05'0 0.0
2015-May-24 00:27N 47°18' W 002°05'0 0.0
2015-May-23 05:32N 47°18' W 002°05'5 0.2
2015-May-22 04:30N 47°16' W 002°12'0 0.0
2015-May-21 21:16N 47°16' W 002°12'  
2015-May-18 05:14N 47°16' W 002°11'5 6.7
2015-May-18 04:33N 47°18' W 002°05'1 0.9
2015-May-18 03:05N 47°18' W 002°07'4 7.3
2015-May-18 02:33N 47°16' W 002°12'0 0.0
2015-May-18 01:32N 47°16' W 002°12'0 0.0
2015-May-18 00:31N 47°16' W 002°12'0 0.0
2015-May-17 23:32N 47°16' W 002°12'0 0.0
2015-May-17 22:30N 47°16' W 002°12'0 0.0
2015-May-17 08:23N 47°16' W 002°12'2 0.3
2015-May-17 03:33N 47°17' W 002°10'4 3.6
2015-May-17 02:33N 47°18' W 002°05'0 0.3
2015-May-17 01:30N 47°18' W 002°06'  
Track history (hours):
 
Tides and Currents Weather Stations Pressure Air Temp Water Temp Dewpoint Dewpoint Depression Visibility Wind Speed Wind Dir Waves Ship Positions

Vb Bretagne

Last reported at 2015-May-24 06:33 UTC. Time now 2015-May-24 19:20 UTC.
Position N 47°18' W 002°07'.

Length 32 m; draft 4.1 m.

Type: Tug. MMSI: 228234700.

Date/timePositionNaut miles runAvg speedWind from/ knotsBaromVisibWave heightAir tempDewpointWater temp
2015-May-24 06:33N 47°18' W 002°07'1 1.4
2015-May-24 05:33N 47°18' W 002°05'0 0.0
2015-May-24 04:17N 47°18' W 002°05'0 0.0
2015-May-24 02:33N 47°18' W 002°05'0 0.0
2015-May-24 01:32N 47°18' W 002°05'0 0.0
2015-May-24 00:27N 47°18' W 002°05'0 0.0
2015-May-23 05:32N 47°18' W 002°05'5 0.2
2015-May-22 04:30N 47°16' W 002°12'0 0.0
2015-May-21 21:16N 47°16' W 002°12'  
2015-May-18 05:14N 47°16' W 002°11'5 6.7
2015-May-18 04:33N 47°18' W 002°05'1 0.9
2015-May-18 03:05N 47°18' W 002°07'4 7.3
2015-May-18 02:33N 47°16' W 002°12'0 0.0
2015-May-18 01:32N 47°16' W 002°12'0 0.0
2015-May-18 00:31N 47°16' W 002°12'0 0.0
2015-May-17 23:32N 47°16' W 002°12'0 0.0
2015-May-17 22:30N 47°16' W 002°12'0 0.0
2015-May-17 08:23N 47°16' W 002°12'2 0.3
2015-May-17 03:33N 47°17' W 002°10'4 3.6
2015-May-17 02:33N 47°18' W 002°05'0 0.3
2015-May-17 01:30N 47°18' W 002°06'  

Dump ship's entire track history